Terminal Aerodrome Forecast
Issued by NWS Buffalo, NY

Home | Current Version | Previous Version | Text Only | Print | Product List | Glossary On
Versions: 1 2 3 4 5 6 7 8 9 10 11 12 13 14 15 16 17 18 19 20 21 22 23 24 25 26
000
FTUS41 KBUF 202300
TAFBUF
TAF
KBUF 202331Z 2100/2124 24013KT P6SM -SHRA OVC050
     FM210100 24013KT P6SM VCSH OVC045
     FM210300 23012KT P6SM BKN045
     FM211000 23013KT P6SM BKN120
     FM211400 23015KT P6SM BKN070=

USA.gov is the U.S. government's official web portal to all federal, state and local government web resources and services.